createdAt,value
2016-06-24T00:00:06.171Z,26.71
2016-06-24T00:01:05.567Z,26.82
2016-06-24T00:02:04.976Z,26.81
2016-06-24T00:03:04.998Z,26.76
2016-06-24T00:04:05.003Z,26.76
2016-06-24T00:05:05.605Z,26.82
2016-06-24T00:06:05.633Z,26.79
2016-06-24T00:07:05.638Z,26.86
2016-06-24T00:08:05.648Z,26.79
2016-06-24T00:09:05.661Z,26.79
2016-06-24T00:10:05.691Z,26.86
2016-06-24T00:11:05.079Z,26.72
2016-06-24T00:12:05.684Z,26.82
2016-06-24T00:13:05.107Z,26.86
2016-06-24T00:14:05.123Z,26.81
2016-06-24T00:15:05.116Z,26.76
2016-06-24T00:16:05.174Z,26.75
2016-06-24T00:17:05.147Z,26.79
2016-06-24T00:18:05.165Z,26.75
2016-06-24T00:19:06.373Z,26.74
2016-06-24T00:20:05.780Z,26.72
2016-06-24T00:21:05.790Z,26.82
2016-06-24T00:22:05.194Z,26.76
2016-06-24T00:23:05.810Z,26.71
2016-06-24T00:24:05.817Z,26.75
2016-06-24T00:25:06.429Z,26.74
2016-06-24T00:26:05.253Z,26.74
2016-06-24T00:27:06.457Z,26.76
2016-06-24T00:28:06.459Z,26.74
2016-06-24T00:29:05.883Z,26.72
2016-06-24T00:30:05.900Z,26.69
2016-06-24T00:31:05.295Z,26.75
2016-06-24T00:32:06.549Z,26.75
2016-06-24T00:33:05.912Z,26.72
2016-06-24T00:34:05.947Z,26.71
2016-06-24T00:35:06.537Z,26.68
2016-06-24T00:36:05.356Z,26.71
2016-06-24T00:37:05.353Z,26.67
2016-06-24T00:38:05.966Z,26.71
2016-06-24T00:39:06.017Z,26.6
2016-06-24T00:40:06.597Z,26.61
2016-06-24T00:41:06.003Z,26.68
2016-06-24T00:42:06.611Z,26.64
2016-06-24T00:43:06.030Z,26.74
2016-06-24T00:44:06.638Z,26.67
2016-06-24T00:45:05.471Z,26.64
2016-06-24T00:46:06.666Z,26.6
2016-06-24T00:47:06.075Z,26.63
2016-06-24T00:48:06.686Z,26.61
2016-06-24T00:49:06.100Z,26.63
2016-06-24T00:50:06.114Z,26.6
2016-06-24T00:51:06.116Z,26.68
2016-06-24T00:52:06.139Z,26.6
2016-06-24T00:53:06.747Z,26.61
2016-06-24T00:54:06.136Z,26.56
2016-06-24T00:55:06.165Z,26.64
2016-06-24T00:56:06.762Z,26.6
2016-06-24T00:57:06.181Z,26.69
2016-06-24T00:58:06.190Z,26.68
2016-06-24T00:59:06.811Z,26.69
2016-06-24T01:00:05.632Z,26.6
2016-06-24T01:01:06.242Z,26.61
2016-06-24T01:02:06.239Z,26.63
2016-06-24T01:03:06.247Z,26.63
2016-06-24T01:04:06.274Z,26.63
2016-06-24T01:05:06.906Z,26.64
2016-06-24T01:06:05.679Z,26.57
2016-06-24T01:07:06.901Z,26.57
2016-06-24T01:08:06.905Z,26.63
2016-06-24T01:09:06.325Z,26.68
2016-06-24T01:10:06.340Z,26.6
2016-06-24T01:11:06.332Z,26.67
2016-06-24T01:12:06.350Z,26.63
2016-06-24T01:13:06.361Z,26.63
2016-06-24T01:14:05.766Z,26.6
2016-06-24T01:15:06.145Z,26.6
2016-06-24T01:16:05.805Z,26.6
2016-06-24T01:17:06.999Z,26.63
2016-06-24T01:18:07.015Z,26.61
2016-06-24T01:19:06.422Z,26.54
2016-06-24T01:20:06.429Z,26.53
2016-06-24T01:21:07.039Z,26.59
2016-06-24T01:22:06.470Z,26.6
2016-06-24T01:23:05.865Z,26.59
2016-06-24T01:24:07.078Z,26.6
2016-06-24T01:25:07.086Z,26.59
2016-06-24T01:26:06.761Z,26.56
2016-06-24T01:27:06.675Z,26.57
2016-06-24T01:28:06.538Z,26.52
2016-06-24T01:29:05.934Z,26.54
2016-06-24T01:30:06.256Z,26.54
2016-06-24T01:31:06.564Z,26.54
2016-06-24T01:32:06.574Z,26.53
2016-06-24T01:33:06.698Z,26.53
2016-06-24T01:34:05.997Z,26.53
2016-06-24T01:35:05.997Z,26.53
2016-06-24T01:36:06.618Z,26.59
2016-06-24T01:37:06.784Z,26.54
2016-06-24T01:38:06.644Z,26.54
2016-06-24T01:39:06.051Z,26.47
2016-06-24T01:40:06.067Z,26.5
2016-06-24T01:41:06.229Z,26.5
2016-06-24T01:42:06.686Z,26.5
2016-06-24T01:43:06.700Z,26.41
2016-06-24T01:44:06.697Z,26.45
2016-06-24T01:45:07.327Z,26.45
2016-06-24T01:46:06.981Z,26.52
2016-06-24T01:47:06.763Z,26.5
2016-06-24T01:48:06.150Z,26.5
2016-06-24T01:49:06.171Z,26.45
2016-06-24T01:50:07.019Z,26.5
2016-06-24T01:51:06.770Z,26.53
2016-06-24T01:52:06.386Z,26.5
2016-06-24T01:53:06.890Z,26.38
2016-06-24T01:54:06.211Z,26.5
2016-06-24T01:55:07.574Z,26.44
2016-06-24T01:56:07.434Z,26.5
2016-06-24T01:57:07.493Z,26.47
2016-06-24T01:58:06.247Z,26.49
2016-06-24T01:59:07.471Z,26.42
2016-06-24T02:00:07.648Z,26.53
2016-06-24T02:01:06.886Z,26.37
2016-06-24T02:02:07.636Z,26.37
2016-06-24T02:03:07.758Z,26.44
2016-06-24T02:04:06.936Z,26.45
2016-06-24T02:05:06.952Z,26.39
2016-06-24T02:06:07.654Z,26.37
2016-06-24T02:07:07.051Z,26.37
2016-06-24T02:08:06.368Z,26.39
2016-06-24T02:09:07.224Z,26.47
2016-06-24T02:10:06.385Z,26.44
2016-06-24T02:11:07.001Z,26.44
2016-06-24T02:12:06.418Z,26.45
2016-06-24T02:13:07.619Z,26.42
2016-06-24T02:14:06.759Z,26.47
2016-06-24T02:15:06.440Z,26.45
2016-06-24T02:16:07.107Z,26.39
2016-06-24T02:17:06.473Z,26.42
2016-06-24T02:18:07.661Z,26.38
2016-06-24T02:19:07.191Z,26.39
2016-06-24T02:20:07.695Z,26.41
2016-06-24T02:21:07.098Z,26.38
2016-06-24T02:22:08.198Z,26.42
2016-06-24T02:23:06.537Z,26.45
2016-06-24T02:24:06.532Z,26.39
2016-06-24T02:25:07.145Z,26.5
2016-06-24T02:26:07.504Z,26.39
2016-06-24T02:27:07.166Z,26.39
2016-06-24T02:28:07.533Z,26.42
2016-06-24T02:29:07.798Z,26.39
2016-06-24T02:30:06.855Z,26.49
2016-06-24T02:31:07.510Z,26.42
2016-06-24T02:32:06.659Z,26.38
2016-06-24T02:33:07.285Z,26.37
2016-06-24T02:34:07.237Z,26.39
2016-06-24T02:35:06.667Z,26.44
2016-06-24T02:36:08.177Z,26.38
2016-06-24T02:37:06.794Z,26.35
2016-06-24T02:38:07.300Z,26.42
2016-06-24T02:39:07.899Z,26.34
2016-06-24T02:40:07.325Z,26.35
2016-06-24T02:41:08.016Z,26.35
2016-06-24T02:42:07.327Z,26.35
2016-06-24T02:43:07.944Z,26.38
2016-06-24T02:44:07.362Z,26.38
2016-06-24T02:45:07.574Z,26.38
2016-06-24T02:46:07.370Z,26.37
2016-06-24T02:47:07.387Z,26.35
2016-06-24T02:48:08.140Z,26.38
2016-06-24T02:49:07.397Z,26.37
2016-06-24T02:50:06.834Z,26.35
2016-06-24T02:51:08.019Z,26.35
2016-06-24T02:52:06.834Z,26.35
2016-06-24T02:53:06.852Z,26.41
2016-06-24T02:54:07.460Z,26.38
2016-06-24T02:55:08.081Z,26.39
2016-06-24T02:56:08.096Z,26.42
2016-06-24T02:57:07.496Z,26.35
2016-06-24T02:58:08.103Z,26.38
2016-06-24T02:59:08.130Z,26.39
2016-06-24T03:00:08.121Z,26.37
2016-06-24T03:01:07.536Z,26.37
2016-06-24T03:02:07.545Z,26.35
2016-06-24T03:03:08.164Z,26.39
2016-06-24T03:04:08.168Z,26.34
2016-06-24T03:05:08.208Z,26.38
2016-06-24T03:06:07.592Z,26.39
2016-06-24T03:07:07.609Z,26.32
2016-06-24T03:08:08.214Z,26.35
2016-06-24T03:09:07.011Z,26.32
2016-06-24T03:10:07.039Z,26.37
2016-06-24T03:11:07.047Z,26.39
2016-06-24T03:12:08.254Z,26.35
2016-06-24T03:13:07.682Z,26.32
2016-06-24T03:14:08.283Z,26.38
2016-06-24T03:15:07.096Z,26.35
2016-06-24T03:16:07.746Z,26.35
2016-06-24T03:17:07.099Z,26.39
2016-06-24T03:18:08.331Z,26.38
2016-06-24T03:19:08.344Z,26.39
2016-06-24T03:20:07.747Z,26.38
2016-06-24T03:21:08.353Z,26.37
2016-06-24T03:22:07.786Z,26.41
2016-06-24T03:23:08.378Z,26.35
2016-06-24T03:24:07.207Z,26.34
2016-06-24T03:25:07.788Z,26.34
2016-06-24T03:26:07.805Z,26.38
2016-06-24T03:27:08.420Z,26.35
2016-06-24T03:28:07.822Z,26.35
2016-06-24T03:29:07.842Z,26.35
2016-06-24T03:30:07.263Z,26.39
2016-06-24T03:31:07.866Z,26.39
2016-06-24T03:32:07.313Z,26.35
2016-06-24T03:33:08.475Z,26.41
2016-06-24T03:34:07.892Z,26.38
2016-06-24T03:35:07.318Z,26.35
2016-06-24T03:36:07.304Z,26.37
2016-06-24T03:37:08.544Z,26.26
2016-06-24T03:38:07.937Z,26.41
2016-06-24T03:39:07.345Z,26.38
2016-06-24T03:40:08.565Z,26.37
2016-06-24T03:41:07.994Z,26.38
2016-06-24T03:42:07.974Z,26.34
2016-06-24T03:43:07.997Z,26.38
2016-06-24T03:44:08.595Z,26.35
2016-06-24T03:45:08.249Z,26.39
2016-06-24T03:46:08.613Z,26.39
2016-06-24T03:47:08.642Z,26.34
2016-06-24T03:48:07.448Z,26.35
2016-06-24T03:49:08.046Z,26.31
2016-06-24T03:50:07.463Z,26.38
2016-06-24T03:51:08.687Z,26.37
2016-06-24T03:52:08.094Z,26.34
2016-06-24T03:53:08.700Z,26.37
2016-06-24T03:54:08.124Z,26.35
2016-06-24T03:55:08.725Z,26.38
2016-06-24T03:56:08.145Z,26.38
2016-06-24T03:57:08.745Z,26.35
2016-06-24T03:58:07.563Z,26.37
2016-06-24T03:59:08.770Z,26.41
2016-06-24T04:00:08.792Z,26.39
2016-06-24T04:01:07.595Z,26.39
2016-06-24T04:02:08.797Z,26.37
2016-06-24T04:03:08.822Z,26.37
2016-06-24T04:04:08.223Z,26.35
2016-06-24T04:05:08.238Z,26.39
2016-06-24T04:06:08.227Z,26.37
2016-06-24T04:07:07.652Z,26.38
2016-06-24T04:08:08.870Z,26.35
2016-06-24T04:09:08.269Z,26.35
2016-06-24T04:10:08.289Z,26.35
2016-06-24T04:11:08.900Z,26.35
2016-06-24T04:12:08.297Z,26.39
2016-06-24T04:13:08.320Z,26.37
2016-06-24T04:14:08.321Z,26.42
2016-06-24T04:15:07.745Z,26.42
2016-06-24T04:16:08.358Z,26.42
2016-06-24T04:17:08.354Z,26.44
2016-06-24T04:18:08.369Z,26.38
2016-06-24T04:19:08.371Z,26.37
2016-06-24T04:20:08.403Z,26.38
2016-06-24T04:21:08.405Z,26.41
2016-06-24T04:22:08.432Z,26.41
2016-06-24T04:23:09.038Z,26.38
2016-06-24T04:24:08.441Z,26.47
2016-06-24T04:25:08.448Z,26.45
2016-06-24T04:26:07.867Z,26.37
2016-06-24T04:27:07.858Z,26.42
2016-06-24T04:28:08.466Z,26.41
2016-06-24T04:29:08.478Z,26.42
2016-06-24T04:30:09.131Z,26.44
2016-06-24T04:31:07.898Z,26.41
2016-06-24T04:32:08.529Z,26.37
2016-06-24T04:33:07.958Z,26.42
2016-06-24T04:34:08.547Z,26.41
2016-06-24T04:35:09.139Z,26.42
2016-06-24T04:36:09.174Z,26.45
2016-06-24T04:37:08.793Z,26.47
2016-06-24T04:38:08.590Z,26.39
2016-06-24T04:39:08.594Z,26.38
2016-06-24T04:40:08.587Z,26.45
2016-06-24T04:41:08.618Z,26.52
2016-06-24T04:42:08.618Z,26.38
2016-06-24T04:43:08.025Z,26.5
2016-06-24T04:44:09.257Z,26.45
2016-06-24T04:45:08.059Z,26.49
2016-06-24T04:46:08.677Z,26.44
2016-06-24T04:47:09.292Z,26.42
2016-06-24T04:48:08.676Z,26.49
2016-06-24T04:49:09.292Z,26.45
2016-06-24T04:50:08.109Z,26.52
2016-06-24T04:51:08.722Z,26.42
2016-06-24T04:52:08.729Z,26.5
2016-06-24T04:53:09.336Z,26.45
2016-06-24T04:54:08.757Z,26.5
2016-06-24T04:55:08.764Z,26.41
2016-06-24T04:56:08.771Z,26.5
2016-06-24T04:57:08.787Z,26.49
2016-06-24T04:58:08.806Z,26.47
2016-06-24T04:59:08.215Z,26.53
2016-06-24T05:00:09.416Z,26.5
2016-06-24T05:01:09.424Z,26.5
2016-06-24T05:02:09.444Z,26.53
2016-06-24T05:03:08.861Z,26.49
2016-06-24T05:04:09.466Z,26.5
2016-06-24T05:05:08.859Z,26.52
2016-06-24T05:06:09.483Z,26.53
2016-06-24T05:07:09.487Z,26.53
2016-06-24T05:08:08.907Z,26.54
2016-06-24T05:09:09.503Z,26.53
2016-06-24T05:10:08.318Z,26.52
2016-06-24T05:11:08.927Z,26.59
2016-06-24T05:12:08.935Z,26.54
2016-06-24T05:13:09.549Z,26.57
2016-06-24T05:14:08.968Z,26.53
2016-06-24T05:15:08.977Z,26.54
2016-06-24T05:16:09.587Z,26.54
2016-06-24T05:17:09.603Z,26.54
2016-06-24T05:18:09.012Z,26.54
2016-06-24T05:19:09.611Z,26.54
2016-06-24T05:20:09.033Z,26.53
2016-06-24T05:21:09.682Z,26.59
2016-06-24T05:22:08.437Z,26.61
2016-06-24T05:23:09.060Z,26.59
2016-06-24T05:24:09.674Z,26.6
2016-06-24T05:25:09.702Z,26.53
2016-06-24T05:26:09.113Z,26.52
2016-06-24T05:27:08.504Z,26.6
2016-06-24T05:28:09.736Z,26.6
2016-06-24T05:29:09.725Z,26.6
2016-06-24T05:30:09.134Z,26.6
2016-06-24T05:31:08.551Z,26.57
2016-06-24T05:32:08.551Z,26.59
2016-06-24T05:33:09.765Z,26.64
2016-06-24T05:34:09.784Z,26.63
2016-06-24T05:35:09.190Z,26.56
2016-06-24T05:36:09.801Z,26.68
2016-06-24T05:37:09.257Z,26.61
2016-06-24T05:38:09.231Z,26.64
2016-06-24T05:39:09.232Z,26.59
2016-06-24T05:40:09.849Z,26.64
2016-06-24T05:41:09.262Z,26.64
2016-06-24T05:42:08.666Z,26.63
2016-06-24T05:43:08.705Z,26.67
2016-06-24T05:44:09.884Z,26.6
2016-06-24T05:45:09.901Z,26.6
2016-06-24T05:46:09.317Z,26.63
2016-06-24T05:47:09.326Z,26.71
2016-06-24T05:48:09.347Z,26.59
2016-06-24T05:49:09.350Z,26.68
2016-06-24T05:50:09.359Z,26.61
2016-06-24T05:51:09.970Z,26.59
2016-06-24T05:52:08.786Z,26.6
2016-06-24T05:53:09.399Z,26.59
2016-06-24T05:54:08.816Z,26.63
2016-06-24T05:55:09.416Z,26.69
2016-06-24T05:56:09.419Z,26.59
2016-06-24T05:57:09.430Z,26.59
2016-06-24T05:58:10.042Z,26.63
2016-06-24T05:59:08.857Z,26.72
2016-06-24T06:00:09.477Z,26.67
2016-06-24T06:01:09.476Z,26.63
2016-06-24T06:02:10.088Z,26.67
2016-06-24T06:03:10.089Z,26.6
2016-06-24T06:04:08.914Z,26.63
2016-06-24T06:05:09.519Z,26.71
2016-06-24T06:06:09.530Z,26.71
2016-06-24T06:07:09.546Z,26.69
2016-06-24T06:08:09.559Z,26.63
2016-06-24T06:09:08.979Z,26.64
2016-06-24T06:10:09.571Z,26.74
2016-06-24T06:11:10.184Z,26.71
2016-06-24T06:12:09.594Z,26.68
2016-06-24T06:13:09.858Z,26.69
2016-06-24T06:14:09.629Z,26.76
2016-06-24T06:15:10.216Z,26.74
2016-06-24T06:16:09.635Z,26.74
2016-06-24T06:17:09.075Z,26.75
2016-06-24T06:18:10.261Z,26.74
2016-06-24T06:19:09.681Z,26.76
2016-06-24T06:20:09.899Z,26.72
2016-06-24T06:21:09.691Z,26.75
2016-06-24T06:22:09.695Z,26.72
2016-06-24T06:23:09.143Z,26.72
2016-06-24T06:24:10.321Z,26.75
2016-06-24T06:25:09.740Z,26.75
2016-06-24T06:26:09.754Z,26.75
2016-06-24T06:27:09.826Z,26.69
2016-06-24T06:28:09.170Z,26.69
2016-06-24T06:29:09.785Z,26.64
2016-06-24T06:30:09.788Z,26.75
2016-06-24T06:31:10.397Z,26.75
2016-06-24T06:32:10.411Z,26.71
2016-06-24T06:33:09.221Z,26.69
2016-06-24T06:34:09.845Z,26.71
2016-06-24T06:35:10.439Z,26.75
2016-06-24T06:36:10.467Z,26.75
2016-06-24T06:37:09.866Z,26.76
2016-06-24T06:38:09.307Z,26.76
2016-06-24T06:39:10.503Z,26.74
2016-06-24T06:40:09.319Z,26.69
2016-06-24T06:41:09.317Z,26.71
2016-06-24T06:42:10.519Z,26.81
2016-06-24T06:43:09.343Z,26.81
2016-06-24T06:44:09.952Z,26.75
2016-06-24T06:45:09.963Z,26.78
2016-06-24T06:46:09.965Z,26.84
2016-06-24T06:47:09.382Z,26.78
2016-06-24T06:48:09.988Z,26.75
2016-06-24T06:49:10.011Z,26.75
2016-06-24T06:50:09.417Z,26.82
2016-06-24T06:51:10.624Z,26.82
2016-06-24T06:52:10.030Z,26.84
2016-06-24T06:53:10.046Z,26.82
2016-06-24T06:54:09.463Z,26.84
2016-06-24T06:55:09.478Z,26.81
2016-06-24T06:56:10.501Z,26.86
2016-06-24T06:57:10.099Z,26.84
2016-06-24T06:58:10.722Z,26.9
2016-06-24T06:59:10.717Z,26.96
2016-06-24T07:00:10.140Z,26.82
2016-06-24T07:01:09.531Z,26.87
2016-06-24T07:02:10.161Z,26.9
2016-06-24T07:03:10.167Z,26.87
2016-06-24T07:04:10.767Z,26.91
2016-06-24T07:05:09.580Z,26.81
2016-06-24T07:06:10.788Z,26.91
2016-06-24T07:07:10.207Z,26.94
2016-06-24T07:08:10.224Z,26.87
2016-06-24T07:09:10.277Z,26.86
2016-06-24T07:10:10.230Z,26.93
2016-06-24T07:11:09.674Z,26.82
2016-06-24T07:12:10.855Z,26.86
2016-06-24T07:13:10.881Z,26.91
2016-06-24T07:14:09.686Z,26.96
2016-06-24T07:15:10.302Z,26.81
2016-06-24T07:16:09.705Z,26.99
2016-06-24T07:17:10.943Z,26.89
2016-06-24T07:18:10.925Z,26.93
2016-06-24T07:19:10.337Z,26.94
2016-06-24T07:20:10.338Z,26.93
2016-06-24T07:21:10.371Z,26.96
2016-06-24T07:22:09.762Z,27
2016-06-24T07:23:10.979Z,26.94
2016-06-24T07:24:10.397Z,26.97
2016-06-24T07:25:10.409Z,26.99
2016-06-24T07:27:11.038Z,26.99
2016-06-24T07:28:10.446Z,26.96
2016-06-24T07:29:10.472Z,27.06
2016-06-24T07:30:10.450Z,27.05
2016-06-24T07:31:11.061Z,27.04
2016-06-24T07:32:10.482Z,27.08
2016-06-24T07:33:10.495Z,26.99
2016-06-24T07:34:11.094Z,27.08
2016-06-24T07:35:09.914Z,27.08
2016-06-24T07:36:11.126Z,26.97
2016-06-24T07:37:10.538Z,27.08
2016-06-24T07:38:11.146Z,27.11
2016-06-24T07:39:10.564Z,27.09
2016-06-24T07:40:09.976Z,27.11
2016-06-24T07:41:11.182Z,27.13
2016-06-24T07:42:11.176Z,27.15
2016-06-24T07:43:10.013Z,27.12
2016-06-24T07:44:10.637Z,27.15
2016-06-24T07:45:11.221Z,27.16
2016-06-24T07:46:11.240Z,27.13
2016-06-24T07:47:11.263Z,27.16
2016-06-24T07:48:11.272Z,27.13
2016-06-24T07:49:11.288Z,27.16
2016-06-24T07:50:11.286Z,27.21
2016-06-24T07:51:10.706Z,27.21
2016-06-24T07:52:10.100Z,27.27
2016-06-24T07:53:11.317Z,27.19
2016-06-24T07:54:10.162Z,27.24
2016-06-24T07:55:10.141Z,27.28
2016-06-24T07:56:11.342Z,27.23
2016-06-24T07:57:11.393Z,27.3
2016-06-24T07:58:10.801Z,27.27
2016-06-24T07:59:10.180Z,27.27
2016-06-24T08:00:11.402Z,27.36
2016-06-24T08:01:10.811Z,27.33
2016-06-24T08:02:10.818Z,27.33
2016-06-24T08:03:11.429Z,27.34
2016-06-24T08:04:10.234Z,27.41
2016-06-24T08:05:10.983Z,27.42
2016-06-24T08:06:10.857Z,27.36
2016-06-24T08:07:10.867Z,27.37
2016-06-24T08:08:10.885Z,27.36
2016-06-24T08:09:10.288Z,27.42
2016-06-24T08:10:11.502Z,27.42
2016-06-24T08:11:10.321Z,27.45
2016-06-24T08:12:10.948Z,27.42
2016-06-24T08:13:10.931Z,27.45
2016-06-24T08:14:10.945Z,27.46
2016-06-24T08:15:10.366Z,27.36
2016-06-24T08:16:10.983Z,27.43
2016-06-24T08:17:10.442Z,27.38
2016-06-24T08:18:11.602Z,27.45
2016-06-24T08:19:11.033Z,27.53
2016-06-24T08:20:11.621Z,27.49
2016-06-24T08:21:11.625Z,27.49
2016-06-24T08:22:11.053Z,27.57
2016-06-24T08:23:11.489Z,27.49
2016-06-24T08:24:10.454Z,27.49
2016-06-24T08:25:11.678Z,27.57
2016-06-24T08:26:11.095Z,27.52
2016-06-24T08:27:11.098Z,27.55
2016-06-24T08:28:11.115Z,27.52
2016-06-24T08:29:10.517Z,27.55
2016-06-24T08:30:11.123Z,27.53
2016-06-24T08:31:10.564Z,27.64
2016-06-24T08:32:11.159Z,27.64
2016-06-24T08:33:10.559Z,27.68
2016-06-24T08:34:10.586Z,27.66
2016-06-24T08:35:10.635Z,27.68
2016-06-24T08:36:10.601Z,27.66
2016-06-24T08:37:10.622Z,27.64
2016-06-24T08:38:10.634Z,27.65
2016-06-24T08:39:10.635Z,27.62
2016-06-24T08:40:11.833Z,27.68
2016-06-24T08:41:10.656Z,27.65
2016-06-24T08:42:11.269Z,27.57
2016-06-24T08:43:11.880Z,27.65
2016-06-24T08:44:11.281Z,27.69
2016-06-24T08:45:11.310Z,27.69
2016-06-24T08:46:10.718Z,27.65
2016-06-24T08:47:10.732Z,27.76
2016-06-24T08:48:11.341Z,27.79
2016-06-24T08:49:11.349Z,27.8
2016-06-24T08:50:11.359Z,27.79
2016-06-24T08:51:11.984Z,27.66
2016-06-24T08:52:11.387Z,27.75
2016-06-24T08:53:11.406Z,27.75
2016-06-24T08:54:10.809Z,27.83
2016-06-24T08:55:12.025Z,27.84
2016-06-24T08:56:12.027Z,27.76
2016-06-24T08:57:12.050Z,27.8
2016-06-24T08:58:11.453Z,27.8
2016-06-24T08:59:11.459Z,27.76
2016-06-24T09:00:11.477Z,27.81
2016-06-24T09:01:10.888Z,27.81
2016-06-24T09:02:11.504Z,27.86
2016-06-24T09:03:11.519Z,27.79
2016-06-24T09:04:11.520Z,27.89
2016-06-24T09:05:11.557Z,27.87
2016-06-24T09:06:12.153Z,27.9
2016-06-24T09:07:12.157Z,27.91
2016-06-24T09:08:11.570Z,27.9
2016-06-24T09:09:10.999Z,27.87
2016-06-24T09:10:11.591Z,27.94
2016-06-24T09:11:11.635Z,28.03
2016-06-24T09:12:11.613Z,27.93
2016-06-24T09:13:11.635Z,28.01
2016-06-24T09:14:11.044Z,28.01
2016-06-24T09:15:11.654Z,28.03
2016-06-24T09:16:11.071Z,28.01
2016-06-24T09:17:11.072Z,28.06
2016-06-24T09:18:11.686Z,27.99
2016-06-24T09:19:11.694Z,28.05
2016-06-24T09:20:11.116Z,27.99
2016-06-24T09:21:11.730Z,28.11
2016-06-24T09:22:12.332Z,28.08
2016-06-24T09:23:12.346Z,28.08
2016-06-24T09:24:11.757Z,28.08
2016-06-24T09:25:12.388Z,28.06
2016-06-24T09:26:11.192Z,28.11
2016-06-24T09:27:11.192Z,28.09
2016-06-24T09:28:12.398Z,28.16
2016-06-24T09:29:12.414Z,28.16
2016-06-24T09:30:11.833Z,28.14
2016-06-24T09:31:11.230Z,28.09
2016-06-24T09:32:12.447Z,28.17
2016-06-24T09:33:11.866Z,28.14
2016-06-24T09:34:12.481Z,28.18
2016-06-24T09:35:12.481Z,28.16
2016-06-24T09:36:11.903Z,28.21
2016-06-24T09:37:11.300Z,28.18
2016-06-24T09:38:11.325Z,28.09
2016-06-24T09:39:11.339Z,28.23
2016-06-24T09:40:12.535Z,28.23
2016-06-24T09:41:11.345Z,28.21
2016-06-24T09:42:11.959Z,28.24
2016-06-24T09:43:11.967Z,28.23
2016-06-24T09:44:11.385Z,28.27
2016-06-24T09:45:12.012Z,28.27
2016-06-24T09:46:11.417Z,28.28
2016-06-24T09:47:12.645Z,28.35
2016-06-24T09:48:12.034Z,28.38
2016-06-24T09:49:12.654Z,28.31
2016-06-24T09:50:12.062Z,28.31
2016-06-24T09:51:12.082Z,28.31
2016-06-24T09:52:12.093Z,28.24
2016-06-24T09:53:12.691Z,28.26
2016-06-24T09:54:12.695Z,28.28
2016-06-24T09:55:11.506Z,28.26
2016-06-24T09:56:11.515Z,28.26
2016-06-24T09:57:11.540Z,28.38
2016-06-24T09:58:12.141Z,28.36
2016-06-24T09:59:12.158Z,28.39
2016-06-24T10:00:12.775Z,28.41
2016-06-24T10:01:11.586Z,28.39
2016-06-24T10:02:12.798Z,28.31
2016-06-24T10:03:11.613Z,28.3
2016-06-24T10:04:12.283Z,28.39
2016-06-24T10:05:11.634Z,28.36
2016-06-24T10:06:12.240Z,28.38
2016-06-24T10:07:12.245Z,28.42
2016-06-24T10:08:12.268Z,28.3
2016-06-24T10:09:13.270Z,28.41
2016-06-24T10:10:12.299Z,28.35
2016-06-24T10:11:12.296Z,28.36
2016-06-24T10:12:11.724Z,28.48
2016-06-24T10:13:11.731Z,28.45
2016-06-24T10:14:11.737Z,28.45
2016-06-24T10:15:12.954Z,28.43
2016-06-24T10:16:11.766Z,28.48
2016-06-24T10:17:12.417Z,28.46
2016-06-24T10:18:12.374Z,28.48
2016-06-24T10:19:13.008Z,28.54
2016-06-24T10:20:12.411Z,28.46
2016-06-24T10:21:12.410Z,28.58
2016-06-24T10:22:12.427Z,28.51
2016-06-24T10:23:13.031Z,28.61
2016-06-24T10:24:13.050Z,28.55
2016-06-24T10:25:12.487Z,28.58
2016-06-24T10:26:12.484Z,28.54
2016-06-24T10:27:12.515Z,28.61
2016-06-24T10:28:12.519Z,28.58
2016-06-24T10:29:13.115Z,28.58
2016-06-24T10:30:11.921Z,28.51
2016-06-24T10:31:13.140Z,28.55
2016-06-24T10:32:13.149Z,28.57
2016-06-24T10:33:12.560Z,28.68
2016-06-24T10:34:11.989Z,28.67
2016-06-24T10:35:12.602Z,28.7
2016-06-24T10:36:12.598Z,28.7
2016-06-24T10:37:12.606Z,28.67
2016-06-24T10:38:12.623Z,28.78
2016-06-24T10:39:12.054Z,28.68
2016-06-24T10:40:12.655Z,28.72
2016-06-24T10:41:12.068Z,28.72
2016-06-24T10:42:12.674Z,28.75
2016-06-24T10:43:12.072Z,28.72
2016-06-24T10:44:12.080Z,28.79
2016-06-24T10:45:12.109Z,28.65
2016-06-24T10:46:12.703Z,28.75
2016-06-24T10:47:13.327Z,28.64
2016-06-24T10:48:13.362Z,28.7
2016-06-24T10:49:12.788Z,28.76
2016-06-24T10:50:12.171Z,28.76
2016-06-24T10:51:13.370Z,28.73
2016-06-24T10:52:12.786Z,28.8
2016-06-24T10:53:12.790Z,28.73
2016-06-24T10:54:12.799Z,28.73
2016-06-24T10:55:13.439Z,28.8
2016-06-24T10:56:12.836Z,28.85
2016-06-24T10:57:12.241Z,28.73
2016-06-24T10:58:13.466Z,28.82
2016-06-24T10:59:12.860Z,28.88
2016-06-24T11:00:12.281Z,28.88
2016-06-24T11:01:12.294Z,28.8
2016-06-24T11:02:12.301Z,28.8
2016-06-24T11:03:12.911Z,28.8
2016-06-24T11:04:12.326Z,28.85
2016-06-24T11:05:13.525Z,28.82
2016-06-24T11:06:13.537Z,28.85
2016-06-24T11:07:12.367Z,28.83
2016-06-24T11:08:12.969Z,28.86
2016-06-24T11:09:13.586Z,28.88
2016-06-24T11:10:12.397Z,28.94
2016-06-24T11:11:12.414Z,28.92
2016-06-24T11:12:13.018Z,28.95
2016-06-24T11:13:13.033Z,28.94
2016-06-24T11:14:13.049Z,28.97
2016-06-24T11:15:13.646Z,28.94
2016-06-24T11:16:13.665Z,28.95
2016-06-24T11:17:12.687Z,29.02
2016-06-24T11:18:13.680Z,28.98
2016-06-24T11:19:13.694Z,29.02
2016-06-24T11:20:13.111Z,28.97
2016-06-24T11:21:13.133Z,28.95
2016-06-24T11:22:12.531Z,28.92
2016-06-24T11:23:13.152Z,29.01
2016-06-24T11:24:13.167Z,28.98
2016-06-24T11:25:13.180Z,29.01
2016-06-24T11:26:13.180Z,29.02
2016-06-24T11:27:13.192Z,28.97
2016-06-24T11:28:13.190Z,29.03
2016-06-24T11:29:13.809Z,29.02
2016-06-24T11:30:12.618Z,29.08
2016-06-24T11:31:13.242Z,29.03
2016-06-24T11:32:13.251Z,29.01
2016-06-24T11:33:13.870Z,29.01
2016-06-24T11:34:13.279Z,29.03
2016-06-24T11:35:13.886Z,29.06
2016-06-24T11:36:13.307Z,29.05
2016-06-24T11:37:13.316Z,29.1
2016-06-24T11:38:13.338Z,29.13
2016-06-24T11:39:14.039Z,29.17
2016-06-24T11:40:13.651Z,29.18
2016-06-24T11:41:14.247Z,29.14
2016-06-24T11:42:13.496Z,29.21
2016-06-24T11:43:13.806Z,29.17
2016-06-24T11:44:14.350Z,29.17
2016-06-24T11:45:14.152Z,29.17
2016-06-24T11:46:14.021Z,29.23
2016-06-24T11:47:13.432Z,29.26
2016-06-24T11:48:12.835Z,29.21
2016-06-24T11:49:13.454Z,29.21
2016-06-24T11:50:13.446Z,29.32
2016-06-24T11:51:14.060Z,29.33
2016-06-24T11:52:13.490Z,29.36
2016-06-24T11:53:13.485Z,29.29
2016-06-24T11:54:12.901Z,29.33
2016-06-24T11:55:12.919Z,29.3
2016-06-24T11:56:12.933Z,29.32
2016-06-24T11:57:13.549Z,29.3
2016-06-24T11:58:13.547Z,29.38
2016-06-24T11:59:12.985Z,29.32
2016-06-24T12:00:13.602Z,29.32
2016-06-24T12:01:14.531Z,29.45
2016-06-24T12:02:14.198Z,29.47
2016-06-24T12:03:13.613Z,29.36
2016-06-24T12:04:13.026Z,29.43
2016-06-24T12:05:13.639Z,29.51
2016-06-24T12:06:13.055Z,29.5
2016-06-24T12:07:13.663Z,29.4
2016-06-24T12:08:14.268Z,29.5
2016-06-24T12:09:13.689Z,29.48
2016-06-24T12:10:14.295Z,29.48
2016-06-24T12:11:13.698Z,29.43
2016-06-24T12:12:13.721Z,29.42
2016-06-24T12:13:13.734Z,29.42
2016-06-24T12:14:13.139Z,29.48
2016-06-24T12:15:13.771Z,29.5
2016-06-24T12:16:13.175Z,29.48
2016-06-24T12:17:13.190Z,29.51
2016-06-24T12:18:13.806Z,29.51
2016-06-24T12:19:14.408Z,29.5
2016-06-24T12:20:13.821Z,29.51
2016-06-24T12:21:14.421Z,29.51
2016-06-24T12:22:13.854Z,29.52
2016-06-24T12:23:13.842Z,29.47
2016-06-24T12:24:13.885Z,29.55
2016-06-24T12:25:13.288Z,29.54
2016-06-24T12:26:13.327Z,29.52
2016-06-24T12:27:13.316Z,29.51
2016-06-24T12:28:13.303Z,29.55
2016-06-24T12:29:13.319Z,29.52
2016-06-24T12:30:13.942Z,29.58
2016-06-24T12:31:13.353Z,29.58
2016-06-24T12:32:13.358Z,29.66
2016-06-24T12:33:13.975Z,29.54
2016-06-24T12:34:13.998Z,29.6
2016-06-24T12:35:14.592Z,29.63
2016-06-24T12:36:14.605Z,29.72
2016-06-24T12:37:13.432Z,29.7
2016-06-24T12:38:14.034Z,29.73
2016-06-24T12:39:14.641Z,29.66
2016-06-24T12:40:14.054Z,29.65
2016-06-24T12:41:14.065Z,29.66
2016-06-24T12:42:14.673Z,29.61
2016-06-24T12:43:14.087Z,29.61
2016-06-24T12:44:13.513Z,29.61
2016-06-24T12:45:14.120Z,29.65
2016-06-24T12:46:14.770Z,29.66
2016-06-24T12:47:14.139Z,29.67
2016-06-24T12:48:14.162Z,29.67
2016-06-24T12:49:14.168Z,29.69
2016-06-24T12:50:14.779Z,29.7
2016-06-24T12:51:14.189Z,29.7
2016-06-24T12:52:14.206Z,29.72
2016-06-24T12:53:13.610Z,29.77
2016-06-24T12:54:14.242Z,29.66
2016-06-24T12:55:14.867Z,29.75